sensor_id;sensor_type;location;lat;lon;timestamp;temperature;humidity
24250;DHT22;12379;49.820;8.648;2022-12-17T00:00:25;-7.00;99.90
24250;DHT22;12379;49.820;8.648;2022-12-17T00:03:10;-7.10;99.90
24250;DHT22;12379;49.820;8.648;2022-12-17T00:05:55;-7.20;99.90
24250;DHT22;12379;49.820;8.648;2022-12-17T00:08:39;-7.40;99.90
24250;DHT22;12379;49.820;8.648;2022-12-17T00:11:24;-7.30;99.90
24250;DHT22;12379;49.820;8.648;2022-12-17T00:14:09;-7.20;99.90
24250;DHT22;12379;49.820;8.648;2022-12-17T00:16:53;-7.10;99.90
24250;DHT22;12379;49.820;8.648;2022-12-17T00:19:37;-7.10;99.90
24250;DHT22;12379;49.820;8.648;2022-12-17T00:22:21;-7.20;99.90
24250;DHT22;12379;49.820;8.648;2022-12-17T00:25:07;-7.30;99.90
24250;DHT22;12379;49.820;8.648;2022-12-17T00:27:51;-7.30;99.90
24250;DHT22;12379;49.820;8.648;2022-12-17T00:30:35;-7.20;99.90
24250;DHT22;12379;49.820;8.648;2022-12-17T00:33:19;-7.30;99.90
24250;DHT22;12379;49.820;8.648;2022-12-17T00:36:04;-7.20;99.90
24250;DHT22;12379;49.820;8.648;2022-12-17T00:38:48;-7.10;99.90
24250;DHT22;12379;49.820;8.648;2022-12-17T00:41:32;-7.20;99.90
24250;DHT22;12379;49.820;8.648;2022-12-17T00:44:16;-7.10;99.90
24250;DHT22;12379;49.820;8.648;2022-12-17T00:47:00;-7.20;99.90
24250;DHT22;12379;49.820;8.648;2022-12-17T00:49:44;-7.30;99.90
24250;DHT22;12379;49.820;8.648;2022-12-17T00:52:28;-7.30;99.90
24250;DHT22;12379;49.820;8.648;2022-12-17T00:55:12;-7.30;99.90
24250;DHT22;12379;49.820;8.648;2022-12-17T00:58:07;-7.30;99.90
24250;DHT22;12379;49.820;8.648;2022-12-17T01:00:51;-7.30;99.90
24250;DHT22;12379;49.820;8.648;2022-12-17T01:03:40;-7.40;99.90
24250;DHT22;12379;49.820;8.648;2022-12-17T01:06:24;-7.30;99.90
24250;DHT22;12379;49.820;8.648;2022-12-17T01:09:08;-7.30;99.90
24250;DHT22;12379;49.820;8.648;2022-12-17T01:11:52;-7.30;99.90
24250;DHT22;12379;49.820;8.648;2022-12-17T01:14:36;-7.30;99.90
24250;DHT22;12379;49.820;8.648;2022-12-17T01:17:20;-7.40;99.90
24250;DHT22;12379;49.820;8.648;2022-12-17T01:20:04;-7.60;99.90
24250;DHT22;12379;49.820;8.648;2022-12-17T01:22:49;-7.70;99.90
24250;DHT22;12379;49.820;8.648;2022-12-17T01:25:54;-7.70;99.90
24250;DHT22;12379;49.820;8.648;2022-12-17T01:28:39;-7.60;99.90
24250;DHT22;12379;49.820;8.648;2022-12-17T01:31:23;-7.50;99.90
24250;DHT22;12379;49.820;8.648;2022-12-17T01:34:07;-7.40;99.90
24250;DHT22;12379;49.820;8.648;2022-12-17T01:36:51;-7.40;99.90
24250;DHT22;12379;49.820;8.648;2022-12-17T01:39:35;-7.30;99.90
24250;DHT22;12379;49.820;8.648;2022-12-17T01:42:19;-7.30;99.90
24250;DHT22;12379;49.820;8.648;2022-12-17T01:45:03;-7.40;99.90
24250;DHT22;12379;49.820;8.648;2022-12-17T01:48:04;-7.50;99.90
24250;DHT22;12379;49.820;8.648;2022-12-17T01:50:53;-7.60;99.90
24250;DHT22;12379;49.820;8.648;2022-12-17T01:53:46;-7.70;99.90
24250;DHT22;12379;49.820;8.648;2022-12-17T01:56:31;-7.70;99.90
24250;DHT22;12379;49.820;8.648;2022-12-17T01:59:20;-7.60;99.90
24250;DHT22;12379;49.820;8.648;2022-12-17T02:02:08;-7.50;99.90
24250;DHT22;12379;49.820;8.648;2022-12-17T02:04:52;-7.60;99.90
24250;DHT22;12379;49.820;8.648;2022-12-17T02:10:51;-7.60;99.90
24250;DHT22;12379;49.820;8.648;2022-12-17T02:13:41;-7.60;99.90
24250;DHT22;12379;49.820;8.648;2022-12-17T02:16:34;-7.70;99.90
24250;DHT22;12379;49.820;8.648;2022-12-17T02:26:28;-7.80;99.90
24250;DHT22;12379;49.820;8.648;2022-12-17T02:29:14;-7.80;99.90
24250;DHT22;12379;49.820;8.648;2022-12-17T02:32:00;-7.90;99.90
24250;DHT22;12379;49.820;8.648;2022-12-17T02:34:46;-8.00;99.90
24250;DHT22;12379;49.820;8.648;2022-12-17T02:37:31;-7.90;99.90
24250;DHT22;12379;49.820;8.648;2022-12-17T02:40:17;-8.00;99.90
24250;DHT22;12379;49.820;8.648;2022-12-17T02:43:02;-8.00;99.90
24250;DHT22;12379;49.820;8.648;2022-12-17T02:45:57;-7.90;99.90
24250;DHT22;12379;49.820;8.648;2022-12-17T02:48:41;-7.90;99.90
24250;DHT22;12379;49.820;8.648;2022-12-17T02:51:25;-7.90;99.90
24250;DHT22;12379;49.820;8.648;2022-12-17T02:54:09;-8.00;99.90
24250;DHT22;12379;49.820;8.648;2022-12-17T02:56:54;-7.80;99.90
24250;DHT22;12379;49.820;8.648;2022-12-17T02:59:38;-7.80;99.90
24250;DHT22;12379;49.820;8.648;2022-12-17T03:02:22;-7.80;99.90
24250;DHT22;12379;49.820;8.648;2022-12-17T03:05:06;-7.70;99.90
24250;DHT22;12379;49.820;8.648;2022-12-17T03:07:50;-7.60;99.90
24250;DHT22;12379;49.820;8.648;2022-12-17T03:10:34;-7.60;99.90
24250;DHT22;12379;49.820;8.648;2022-12-17T03:13:26;-7.60;99.90
24250;DHT22;12379;49.820;8.648;2022-12-17T03:16:15;-7.60;99.90
24250;DHT22;12379;49.820;8.648;2022-12-17T03:19:00;-7.60;99.90
24250;DHT22;12379;49.820;8.648;2022-12-17T03:21:44;-7.50;99.90
24250;DHT22;12379;49.820;8.648;2022-12-17T03:24:28;-7.50;99.90
24250;DHT22;12379;49.820;8.648;2022-12-17T03:27:13;-7.50;99.90
24250;DHT22;12379;49.820;8.648;2022-12-17T03:29:57;-7.50;99.90
24250;DHT22;12379;49.820;8.648;2022-12-17T03:32:42;-7.60;99.90
24250;DHT22;12379;49.820;8.648;2022-12-17T03:35:26;-7.50;99.90
24250;DHT22;12379;49.820;8.648;2022-12-17T03:38:11;-7.60;99.90
24250;DHT22;12379;49.820;8.648;2022-12-17T03:40:56;-7.60;99.90
24250;DHT22;12379;49.820;8.648;2022-12-17T03:43:40;-7.60;99.90
24250;DHT22;12379;49.820;8.648;2022-12-17T03:46:24;-7.60;99.90
24250;DHT22;12379;49.820;8.648;2022-12-17T03:49:08;-7.60;99.90
24250;DHT22;12379;49.820;8.648;2022-12-17T03:51:53;-7.60;99.90
24250;DHT22;12379;49.820;8.648;2022-12-17T03:54:37;-7.70;99.90
24250;DHT22;12379;49.820;8.648;2022-12-17T03:57:21;-7.70;99.90
24250;DHT22;12379;49.820;8.648;2022-12-17T04:00:06;-7.80;99.90
24250;DHT22;12379;49.820;8.648;2022-12-17T04:02:50;-8.00;99.90
24250;DHT22;12379;49.820;8.648;2022-12-17T04:05:35;-8.10;99.90
24250;DHT22;12379;49.820;8.648;2022-12-17T04:08:19;-8.10;99.90
24250;DHT22;12379;49.820;8.648;2022-12-17T04:11:03;-8.10;99.90
24250;DHT22;12379;49.820;8.648;2022-12-17T04:13:47;-8.10;99.90
24250;DHT22;12379;49.820;8.648;2022-12-17T04:16:31;-8.00;99.90
24250;DHT22;12379;49.820;8.648;2022-12-17T04:19:15;-7.90;99.90
24250;DHT22;12379;49.820;8.648;2022-12-17T04:21:59;-7.70;99.90
24250;DHT22;12379;49.820;8.648;2022-12-17T04:24:43;-7.70;99.90
24250;DHT22;12379;49.820;8.648;2022-12-17T04:27:27;-7.70;99.90
24250;DHT22;12379;49.820;8.648;2022-12-17T04:30:12;-7.70;99.90
24250;DHT22;12379;49.820;8.648;2022-12-17T04:32:56;-7.80;99.90
24250;DHT22;12379;49.820;8.648;2022-12-17T04:35:40;-7.90;99.90
24250;DHT22;12379;49.820;8.648;2022-12-17T04:38:24;-8.00;99.90
24250;DHT22;12379;49.820;8.648;2022-12-17T04:41:07;-8.00;99.90
24250;DHT22;12379;49.820;8.648;2022-12-17T04:43:52;-8.00;99.90
24250;DHT22;12379;49.820;8.648;2022-12-17T04:46:49;-8.10;99.90
24250;DHT22;12379;49.820;8.648;2022-12-17T04:49:34;-8.20;99.90
24250;DHT22;12379;49.820;8.648;2022-12-17T04:52:18;-8.30;99.90
24250;DHT22;12379;49.820;8.648;2022-12-17T04:55:02;-8.30;99.90
24250;DHT22;12379;49.820;8.648;2022-12-17T04:57:46;-8.30;99.90
24250;DHT22;12379;49.820;8.648;2022-12-17T05:00:30;-8.30;99.90
24250;DHT22;12379;49.820;8.648;2022-12-17T05:03:15;-8.30;99.90
24250;DHT22;12379;49.820;8.648;2022-12-17T05:06:00;-8.20;99.90
24250;DHT22;12379;49.820;8.648;2022-12-17T05:08:44;-8.20;99.90
24250;DHT22;12379;49.820;8.648;2022-12-17T05:11:29;-8.20;99.90
24250;DHT22;12379;49.820;8.648;2022-12-17T05:14:13;-8.00;99.90
24250;DHT22;12379;49.820;8.648;2022-12-17T05:16:57;-7.90;99.90
24250;DHT22;12379;49.820;8.648;2022-12-17T05:19:41;-8.10;99.90
24250;DHT22;12379;49.820;8.648;2022-12-17T05:22:25;-8.20;99.90
24250;DHT22;12379;49.820;8.648;2022-12-17T05:25:09;-8.20;99.90
24250;DHT22;12379;49.820;8.648;2022-12-17T05:27:53;-8.30;99.90
24250;DHT22;12379;49.820;8.648;2022-12-17T05:30:37;-8.30;99.90
24250;DHT22;12379;49.820;8.648;2022-12-17T05:33:22;-8.30;99.90
24250;DHT22;12379;49.820;8.648;2022-12-17T05:36:06;-8.40;99.90
24250;DHT22;12379;49.820;8.648;2022-12-17T05:38:50;-8.30;99.90
24250;DHT22;12379;49.820;8.648;2022-12-17T05:41:34;-8.40;99.90
24250;DHT22;12379;49.820;8.648;2022-12-17T05:44:18;-8.50;99.90
24250;DHT22;12379;49.820;8.648;2022-12-17T05:47:03;-8.70;99.90
24250;DHT22;12379;49.820;8.648;2022-12-17T05:49:47;-8.70;99.90
24250;DHT22;12379;49.820;8.648;2022-12-17T05:52:31;-8.60;99.90
24250;DHT22;12379;49.820;8.648;2022-12-17T05:55:15;-8.50;99.90
24250;DHT22;12379;49.820;8.648;2022-12-17T05:58:08;-8.30;99.90
24250;DHT22;12379;49.820;8.648;2022-12-17T06:00:57;-8.30;99.90
24250;DHT22;12379;49.820;8.648;2022-12-17T06:03:42;-8.50;99.90
24250;DHT22;12379;49.820;8.648;2022-12-17T06:06:26;-8.40;99.90
24250;DHT22;12379;49.820;8.648;2022-12-17T06:09:10;-8.20;99.90
24250;DHT22;12379;49.820;8.648;2022-12-17T06:11:54;-8.20;99.90
24250;DHT22;12379;49.820;8.648;2022-12-17T06:14:38;-8.30;99.90
24250;DHT22;12379;49.820;8.648;2022-12-17T06:17:22;-8.30;99.90
24250;DHT22;12379;49.820;8.648;2022-12-17T06:20:07;-8.20;99.90
24250;DHT22;12379;49.820;8.648;2022-12-17T06:23:02;-8.30;99.90
24250;DHT22;12379;49.820;8.648;2022-12-17T06:25:46;-8.50;99.90
24250;DHT22;12379;49.820;8.648;2022-12-17T06:28:31;-8.50;99.90
24250;DHT22;12379;49.820;8.648;2022-12-17T06:31:15;-8.40;99.90
24250;DHT22;12379;49.820;8.648;2022-12-17T06:33:59;-8.40;99.90
24250;DHT22;12379;49.820;8.648;2022-12-17T06:36:44;-8.30;99.90
24250;DHT22;12379;49.820;8.648;2022-12-17T06:39:29;-8.40;99.90
24250;DHT22;12379;49.820;8.648;2022-12-17T06:42:13;-8.30;99.90
24250;DHT22;12379;49.820;8.648;2022-12-17T06:44:57;-8.50;99.90
24250;DHT22;12379;49.820;8.648;2022-12-17T06:47:41;-8.70;99.90
24250;DHT22;12379;49.820;8.648;2022-12-17T06:50:25;-8.90;99.90
24250;DHT22;12379;49.820;8.648;2022-12-17T06:53:10;-8.90;99.90
24250;DHT22;12379;49.820;8.648;2022-12-17T06:55:57;-8.90;99.90
24250;DHT22;12379;49.820;8.648;2022-12-17T06:58:41;-8.90;99.90
24250;DHT22;12379;49.820;8.648;2022-12-17T07:01:25;-9.00;99.90
24250;DHT22;12379;49.820;8.648;2022-12-17T07:04:10;-9.00;99.90
24250;DHT22;12379;49.820;8.648;2022-12-17T07:06:54;-9.00;99.90
24250;DHT22;12379;49.820;8.648;2022-12-17T07:09:38;-9.00;99.90
24250;DHT22;12379;49.820;8.648;2022-12-17T07:12:22;-9.00;99.90
24250;DHT22;12379;49.820;8.648;2022-12-17T07:15:07;-8.90;99.90
24250;DHT22;12379;49.820;8.648;2022-12-17T07:17:56;-8.80;99.90
24250;DHT22;12379;49.820;8.648;2022-12-17T07:20:41;-8.80;99.90
24250;DHT22;12379;49.820;8.648;2022-12-17T07:23:25;-8.80;99.90
24250;DHT22;12379;49.820;8.648;2022-12-17T07:26:09;-9.00;99.90
24250;DHT22;12379;49.820;8.648;2022-12-17T07:28:53;-9.00;99.90
24250;DHT22;12379;49.820;8.648;2022-12-17T07:31:37;-8.90;99.90
24250;DHT22;12379;49.820;8.648;2022-12-17T07:34:21;-9.00;99.90
24250;DHT22;12379;49.820;8.648;2022-12-17T07:37:05;-8.70;99.90
24250;DHT22;12379;49.820;8.648;2022-12-17T07:39:49;-8.60;99.90
24250;DHT22;12379;49.820;8.648;2022-12-17T07:42:33;-8.70;99.90
24250;DHT22;12379;49.820;8.648;2022-12-17T07:45:18;-8.60;99.90
24250;DHT22;12379;49.820;8.648;2022-12-17T07:48:02;-8.70;99.90
24250;DHT22;12379;49.820;8.648;2022-12-17T07:50:49;-8.70;99.90
24250;DHT22;12379;49.820;8.648;2022-12-17T07:53:34;-8.70;99.90
24250;DHT22;12379;49.820;8.648;2022-12-17T07:56:18;-8.80;99.90
24250;DHT22;12379;49.820;8.648;2022-12-17T07:59:03;-8.60;99.90
24250;DHT22;12379;49.820;8.648;2022-12-17T08:01:47;-8.30;99.90
24250;DHT22;12379;49.820;8.648;2022-12-17T08:04:32;-8.10;99.90
24250;DHT22;12379;49.820;8.648;2022-12-17T08:07:15;-8.00;99.90
24250;DHT22;12379;49.820;8.648;2022-12-17T08:10:00;-8.10;99.90
24250;DHT22;12379;49.820;8.648;2022-12-17T08:13:01;-8.10;99.90
24250;DHT22;12379;49.820;8.648;2022-12-17T08:15:47;-8.10;99.90
24250;DHT22;12379;49.820;8.648;2022-12-17T08:18:31;-8.00;99.90
24250;DHT22;12379;49.820;8.648;2022-12-17T08:21:15;-8.00;99.90
24250;DHT22;12379;49.820;8.648;2022-12-17T08:24:00;-7.90;99.90
24250;DHT22;12379;49.820;8.648;2022-12-17T08:26:44;-7.80;99.90
24250;DHT22;12379;49.820;8.648;2022-12-17T08:29:28;-7.40;99.90
24250;DHT22;12379;49.820;8.648;2022-12-17T08:32:12;-6.50;99.90
24250;DHT22;12379;49.820;8.648;2022-12-17T08:34:56;-5.80;99.90
24250;DHT22;12379;49.820;8.648;2022-12-17T08:37:41;-5.10;99.90
24250;DHT22;12379;49.820;8.648;2022-12-17T08:40:25;-4.40;99.90
24250;DHT22;12379;49.820;8.648;2022-12-17T08:43:09;-4.30;99.90
24250;DHT22;12379;49.820;8.648;2022-12-17T08:45:53;-3.50;99.90
24250;DHT22;12379;49.820;8.648;2022-12-17T08:48:37;-3.40;99.90
24250;DHT22;12379;49.820;8.648;2022-12-17T08:51:22;-2.40;99.90
24250;DHT22;12379;49.820;8.648;2022-12-17T08:54:11;-2.40;99.90
24250;DHT22;12379;49.820;8.648;2022-12-17T08:57:09;-2.50;99.90
24250;DHT22;12379;49.820;8.648;2022-12-17T08:59:53;-2.40;99.90
24250;DHT22;12379;49.820;8.648;2022-12-17T09:02:37;-1.80;99.90
24250;DHT22;12379;49.820;8.648;2022-12-17T09:05:21;-1.30;99.90
24250;DHT22;12379;49.820;8.648;2022-12-17T09:08:07;-0.60;99.90
24250;DHT22;12379;49.820;8.648;2022-12-17T09:10:51;-0.60;99.20
24250;DHT22;12379;49.820;8.648;2022-12-17T09:13:36;-0.30;98.50
24250;DHT22;12379;49.820;8.648;2022-12-17T09:16:21;-1.30;98.30
24250;DHT22;12379;49.820;8.648;2022-12-17T09:19:05;-1.30;99.90
24250;DHT22;12379;49.820;8.648;2022-12-17T09:21:49;-1.80;99.90
24250;DHT22;12379;49.820;8.648;2022-12-17T09:24:33;-1.70;99.90
24250;DHT22;12379;49.820;8.648;2022-12-17T09:27:18;-2.10;99.90
24250;DHT22;12379;49.820;8.648;2022-12-17T09:30:03;-1.90;99.90
24250;DHT22;12379;49.820;8.648;2022-12-17T09:32:47;-2.00;99.90
24250;DHT22;12379;49.820;8.648;2022-12-17T09:35:31;-2.00;99.90
24250;DHT22;12379;49.820;8.648;2022-12-17T09:38:16;-1.20;99.90
24250;DHT22;12379;49.820;8.648;2022-12-17T09:41:06;-0.20;99.90
24250;DHT22;12379;49.820;8.648;2022-12-17T09:44:03;-0.50;99.30
24250;DHT22;12379;49.820;8.648;2022-12-17T09:47:07;-1.40;99.90
24250;DHT22;12379;49.820;8.648;2022-12-17T09:49:58;-1.30;99.90
24250;DHT22;12379;49.820;8.648;2022-12-17T09:52:44;-0.60;99.90
24250;DHT22;12379;49.820;8.648;2022-12-17T09:55:38;-1.30;99.90
24250;DHT22;12379;49.820;8.648;2022-12-17T09:58:25;-1.30;99.90
24250;DHT22;12379;49.820;8.648;2022-12-17T10:01:20;-0.20;99.90
24250;DHT22;12379;49.820;8.648;2022-12-17T10:04:34;-1.00;99.90
24250;DHT22;12379;49.820;8.648;2022-12-17T10:07:23;-1.30;99.90
24250;DHT22;12379;49.820;8.648;2022-12-17T10:10:28;-1.60;99.90
24250;DHT22;12379;49.820;8.648;2022-12-17T10:13:15;-1.80;99.90
24250;DHT22;12379;49.820;8.648;2022-12-17T10:15:59;-1.80;99.90
24250;DHT22;12379;49.820;8.648;2022-12-17T10:18:44;-2.00;99.90
24250;DHT22;12379;49.820;8.648;2022-12-17T10:21:30;-1.50;99.90
24250;DHT22;12379;49.820;8.648;2022-12-17T10:24:14;-1.80;99.90
24250;DHT22;12379;49.820;8.648;2022-12-17T10:26:58;-1.70;99.90
24250;DHT22;12379;49.820;8.648;2022-12-17T10:29:43;-2.20;99.90
24250;DHT22;12379;49.820;8.648;2022-12-17T10:32:28;-2.40;99.90
24250;DHT22;12379;49.820;8.648;2022-12-17T10:35:20;-2.40;99.90
24250;DHT22;12379;49.820;8.648;2022-12-17T10:38:18;-1.80;99.90
24250;DHT22;12379;49.820;8.648;2022-12-17T10:41:03;-1.80;99.90
24250;DHT22;12379;49.820;8.648;2022-12-17T10:44:01;-2.30;99.90
24250;DHT22;12379;49.820;8.648;2022-12-17T10:46:55;-2.20;99.90
24250;DHT22;12379;49.820;8.648;2022-12-17T10:49:39;-2.50;99.90
24250;DHT22;12379;49.820;8.648;2022-12-17T10:52:45;-2.90;99.90
24250;DHT22;12379;49.820;8.648;2022-12-17T10:55:48;-3.10;99.90
24250;DHT22;12379;49.820;8.648;2022-12-17T10:58:33;-3.10;99.90
24250;DHT22;12379;49.820;8.648;2022-12-17T11:01:23;-3.10;99.90
24250;DHT22;12379;49.820;8.648;2022-12-17T11:04:29;-3.40;99.90
24250;DHT22;12379;49.820;8.648;2022-12-17T11:07:27;-3.70;99.90
24250;DHT22;12379;49.820;8.648;2022-12-17T11:10:20;-3.50;99.90
24250;DHT22;12379;49.820;8.648;2022-12-17T11:13:09;-3.70;99.90
24250;DHT22;12379;49.820;8.648;2022-12-17T11:15:59;-3.80;99.90
24250;DHT22;12379;49.820;8.648;2022-12-17T11:21:41;-3.70;99.90
24250;DHT22;12379;49.820;8.648;2022-12-17T11:24:31;-3.80;99.90
24250;DHT22;12379;49.820;8.648;2022-12-17T11:27:21;-3.70;99.90
24250;DHT22;12379;49.820;8.648;2022-12-17T11:30:14;-3.70;99.90
24250;DHT22;12379;49.820;8.648;2022-12-17T11:33:11;-3.90;99.90
24250;DHT22;12379;49.820;8.648;2022-12-17T11:36:08;-4.00;99.90
24250;DHT22;12379;49.820;8.648;2022-12-17T11:42:12;-4.00;99.90
24250;DHT22;12379;49.820;8.648;2022-12-17T11:48:14;-3.80;99.90
24250;DHT22;12379;49.820;8.648;2022-12-17T11:51:08;-3.90;99.90
24250;DHT22;12379;49.820;8.648;2022-12-17T11:54:14;-3.80;99.90
24250;DHT22;12379;49.820;8.648;2022-12-17T11:57:08;-3.90;99.90
24250;DHT22;12379;49.820;8.648;2022-12-17T12:00:01;-3.90;99.90
24250;DHT22;12379;49.820;8.648;2022-12-17T12:06:02;-3.80;99.90
24250;DHT22;12379;49.820;8.648;2022-12-17T12:27:06;-3.80;99.90
24250;DHT22;12379;49.820;8.648;2022-12-17T12:30:04;-3.80;99.90
24250;DHT22;12379;49.820;8.648;2022-12-17T12:35:57;-3.90;99.90
24250;DHT22;12379;49.820;8.648;2022-12-17T12:38:43;-3.90;99.90
24250;DHT22;12379;49.820;8.648;2022-12-17T12:41:50;-4.00;99.90
24250;DHT22;12379;49.820;8.648;2022-12-17T12:45:06;-4.30;99.90
24250;DHT22;12379;49.820;8.648;2022-12-17T12:48:18;-4.10;99.90
24250;DHT22;12379;49.820;8.648;2022-12-17T12:51:16;-3.80;99.90
24250;DHT22;12379;49.820;8.648;2022-12-17T12:54:24;-3.60;99.90
24250;DHT22;12379;49.820;8.648;2022-12-17T12:57:41;-3.70;99.90
24250;DHT22;12379;49.820;8.648;2022-12-17T13:06:14;-3.80;99.90
24250;DHT22;12379;49.820;8.648;2022-12-17T13:11:40;-3.70;99.90
24250;DHT22;12379;49.820;8.648;2022-12-17T13:14:17;-3.80;99.90
24250;DHT22;12379;49.820;8.648;2022-12-17T13:21:45;-4.00;99.90
24250;DHT22;12379;49.820;8.648;2022-12-17T13:24:23;-4.00;99.90
24250;DHT22;12379;49.820;8.648;2022-12-17T13:26:51;-3.90;99.90
24250;DHT22;12379;49.820;8.648;2022-12-17T13:29:27;-4.00;99.90
24250;DHT22;12379;49.820;8.648;2022-12-17T13:32:07;-4.00;99.90
24250;DHT22;12379;49.820;8.648;2022-12-17T13:37:49;-3.90;99.90
24250;DHT22;12379;49.820;8.648;2022-12-17T13:40:25;-4.00;99.90
24250;DHT22;12379;49.820;8.648;2022-12-17T13:42:54;-4.00;99.90
24250;DHT22;12379;49.820;8.648;2022-12-17T13:45:22;-4.00;99.90
24250;DHT22;12379;49.820;8.648;2022-12-17T13:47:56;-4.00;99.90
24250;DHT22;12379;49.820;8.648;2022-12-17T13:50:25;-4.00;99.90
24250;DHT22;12379;49.820;8.648;2022-12-17T13:52:51;-4.00;99.90
24250;DHT22;12379;49.820;8.648;2022-12-17T13:55:22;-4.00;99.90
24250;DHT22;12379;49.820;8.648;2022-12-17T13:57:50;-4.00;99.90
24250;DHT22;12379;49.820;8.648;2022-12-17T14:00:28;-4.10;99.90
24250;DHT22;12379;49.820;8.648;2022-12-17T14:02:54;-4.00;99.90
24250;DHT22;12379;49.820;8.648;2022-12-17T14:07:51;-4.00;99.90
24250;DHT22;12379;49.820;8.648;2022-12-17T14:10:18;-4.00;99.90
24250;DHT22;12379;49.820;8.648;2022-12-17T14:12:44;-4.00;99.90
24250;DHT22;12379;49.820;8.648;2022-12-17T14:15:28;-4.00;99.90
24250;DHT22;12379;49.820;8.648;2022-12-17T14:17:56;-4.10;99.90
24250;DHT22;12379;49.820;8.648;2022-12-17T14:20:25;-4.10;99.90
24250;DHT22;12379;49.820;8.648;2022-12-17T14:23:03;-4.10;99.90
24250;DHT22;12379;49.820;8.648;2022-12-17T14:25:35;-4.10;99.90
24250;DHT22;12379;49.820;8.648;2022-12-17T14:30:51;-4.10;99.90
24250;DHT22;12379;49.820;8.648;2022-12-17T14:33:30;-4.20;99.90
24250;DHT22;12379;49.820;8.648;2022-12-17T14:36:02;-4.20;99.90
24250;DHT22;12379;49.820;8.648;2022-12-17T14:38:29;-4.20;99.90
24250;DHT22;12379;49.820;8.648;2022-12-17T14:41:01;-4.20;99.90
24250;DHT22;12379;49.820;8.648;2022-12-17T14:43:54;-4.20;99.90
24250;DHT22;12379;49.820;8.648;2022-12-17T14:46:21;-4.30;99.90
24250;DHT22;12379;49.820;8.648;2022-12-17T14:48:58;-4.30;99.90
24250;DHT22;12379;49.820;8.648;2022-12-17T14:56:44;-4.40;99.90
24250;DHT22;12379;49.820;8.648;2022-12-17T14:59:29;-4.50;99.90
24250;DHT22;12379;49.820;8.648;2022-12-17T15:01:54;-4.60;99.90
24250;DHT22;12379;49.820;8.648;2022-12-17T15:04:20;-4.60;99.90
24250;DHT22;12379;49.820;8.648;2022-12-17T15:06:47;-4.60;99.90
24250;DHT22;12379;49.820;8.648;2022-12-17T15:09:13;-4.70;99.90
24250;DHT22;12379;49.820;8.648;2022-12-17T15:11:39;-4.70;99.90
24250;DHT22;12379;49.820;8.648;2022-12-17T15:14:04;-4.70;99.90
24250;DHT22;12379;49.820;8.648;2022-12-17T15:16:30;-4.80;99.90
24250;DHT22;12379;49.820;8.648;2022-12-17T15:18:56;-4.90;99.90
24250;DHT22;12379;49.820;8.648;2022-12-17T15:21:22;-4.90;99.90
24250;DHT22;12379;49.820;8.648;2022-12-17T15:23:48;-4.90;99.90
24250;DHT22;12379;49.820;8.648;2022-12-17T15:26:13;-4.90;99.90
24250;DHT22;12379;49.820;8.648;2022-12-17T15:28:40;-4.90;99.90
24250;DHT22;12379;49.820;8.648;2022-12-17T15:31:07;-5.00;99.90
24250;DHT22;12379;49.820;8.648;2022-12-17T15:33:33;-4.90;99.90
24250;DHT22;12379;49.820;8.648;2022-12-17T15:35:58;-4.90;99.90
24250;DHT22;12379;49.820;8.648;2022-12-17T15:38:24;-5.00;99.90
24250;DHT22;12379;49.820;8.648;2022-12-17T15:40:49;-5.00;99.90
24250;DHT22;12379;49.820;8.648;2022-12-17T15:43:15;-5.10;99.90
24250;DHT22;12379;49.820;8.648;2022-12-17T15:45:41;-5.10;99.90
24250;DHT22;12379;49.820;8.648;2022-12-17T15:48:08;-5.10;99.90
24250;DHT22;12379;49.820;8.648;2022-12-17T15:50:35;-5.10;99.90
24250;DHT22;12379;49.820;8.648;2022-12-17T15:53:00;-5.20;99.90
24250;DHT22;12379;49.820;8.648;2022-12-17T15:55:26;-5.20;99.90
24250;DHT22;12379;49.820;8.648;2022-12-17T15:57:54;-5.20;99.90
24250;DHT22;12379;49.820;8.648;2022-12-17T16:00:19;-5.20;99.90
24250;DHT22;12379;49.820;8.648;2022-12-17T16:02:46;-5.10;99.90
24250;DHT22;12379;49.820;8.648;2022-12-17T16:05:12;-5.20;99.90
24250;DHT22;12379;49.820;8.648;2022-12-17T16:07:38;-5.20;99.90
24250;DHT22;12379;49.820;8.648;2022-12-17T16:10:05;-5.40;99.90
24250;DHT22;12379;49.820;8.648;2022-12-17T16:12:31;-5.50;99.90
24250;DHT22;12379;49.820;8.648;2022-12-17T16:14:57;-5.50;99.90
24250;DHT22;12379;49.820;8.648;2022-12-17T16:17:22;-5.60;99.90
24250;DHT22;12379;49.820;8.648;2022-12-17T16:19:48;-5.70;99.90
24250;DHT22;12379;49.820;8.648;2022-12-17T16:22:13;-5.70;99.90
24250;DHT22;12379;49.820;8.648;2022-12-17T16:24:39;-5.80;99.90
24250;DHT22;12379;49.820;8.648;2022-12-17T16:27:05;-5.80;99.90
24250;DHT22;12379;49.820;8.648;2022-12-17T16:29:31;-5.90;99.90
24250;DHT22;12379;49.820;8.648;2022-12-17T16:31:58;-5.90;99.90
24250;DHT22;12379;49.820;8.648;2022-12-17T16:34:24;-6.00;99.90
24250;DHT22;12379;49.820;8.648;2022-12-17T16:36:49;-6.00;99.90
24250;DHT22;12379;49.820;8.648;2022-12-17T16:39:16;-6.00;99.90
24250;DHT22;12379;49.820;8.648;2022-12-17T16:41:43;-6.00;99.90
24250;DHT22;12379;49.820;8.648;2022-12-17T16:44:08;-6.10;99.90
24250;DHT22;12379;49.820;8.648;2022-12-17T16:46:36;-6.10;99.90
24250;DHT22;12379;49.820;8.648;2022-12-17T16:51:29;-6.10;99.90
24250;DHT22;12379;49.820;8.648;2022-12-17T16:53:56;-6.10;99.90
24250;DHT22;12379;49.820;8.648;2022-12-17T16:56:24;-6.10;99.90
24250;DHT22;12379;49.820;8.648;2022-12-17T16:58:50;-6.10;99.90
24250;DHT22;12379;49.820;8.648;2022-12-17T17:01:24;-6.10;99.90
24250;DHT22;12379;49.820;8.648;2022-12-17T17:03:50;-6.20;99.90
24250;DHT22;12379;49.820;8.648;2022-12-17T17:06:17;-6.20;99.90
24250;DHT22;12379;49.820;8.648;2022-12-17T17:08:43;-6.20;99.90
24250;DHT22;12379;49.820;8.648;2022-12-17T17:11:14;-6.20;99.90
24250;DHT22;12379;49.820;8.648;2022-12-17T17:13:41;-6.10;99.90
24250;DHT22;12379;49.820;8.648;2022-12-17T17:16:08;-6.20;99.90
24250;DHT22;12379;49.820;8.648;2022-12-17T17:18:35;-6.20;99.90
24250;DHT22;12379;49.820;8.648;2022-12-17T17:23:47;-6.30;99.90
24250;DHT22;12379;49.820;8.648;2022-12-17T17:26:13;-6.50;99.90
24250;DHT22;12379;49.820;8.648;2022-12-17T17:28:39;-6.50;99.90
24250;DHT22;12379;49.820;8.648;2022-12-17T17:31:09;-6.40;99.90
24250;DHT22;12379;49.820;8.648;2022-12-17T17:33:38;-6.50;99.90
24250;DHT22;12379;49.820;8.648;2022-12-17T17:36:05;-6.50;99.90
24250;DHT22;12379;49.820;8.648;2022-12-17T17:38:33;-6.50;99.90
24250;DHT22;12379;49.820;8.648;2022-12-17T17:40:59;-6.60;99.90
24250;DHT22;12379;49.820;8.648;2022-12-17T17:43:25;-6.70;99.90
24250;DHT22;12379;49.820;8.648;2022-12-17T17:45:50;-6.80;99.90
24250;DHT22;12379;49.820;8.648;2022-12-17T17:48:18;-6.90;99.90
24250;DHT22;12379;49.820;8.648;2022-12-17T17:51:00;-7.00;99.90
24250;DHT22;12379;49.820;8.648;2022-12-17T17:53:26;-7.00;99.90
24250;DHT22;12379;49.820;8.648;2022-12-17T17:55:51;-7.00;99.90
24250;DHT22;12379;49.820;8.648;2022-12-17T17:58:17;-7.00;99.90
24250;DHT22;12379;49.820;8.648;2022-12-17T18:00:42;-7.00;99.90
24250;DHT22;12379;49.820;8.648;2022-12-17T18:03:08;-7.00;99.90
24250;DHT22;12379;49.820;8.648;2022-12-17T18:05:37;-7.00;99.90
24250;DHT22;12379;49.820;8.648;2022-12-17T18:08:03;-7.00;99.90
24250;DHT22;12379;49.820;8.648;2022-12-17T18:10:29;-7.00;99.90
24250;DHT22;12379;49.820;8.648;2022-12-17T18:12:55;-7.00;99.90
24250;DHT22;12379;49.820;8.648;2022-12-17T18:15:39;-7.10;99.90